createdAt,value
2017-10-12T00:01:34.567Z,89.70
2017-10-12T00:04:05.278Z,89.60
2017-10-12T00:06:38.680Z,89.40
2017-10-12T00:09:10.376Z,89.50
2017-10-12T00:11:41.832Z,89.40
2017-10-12T00:14:13.862Z,89.40
2017-10-12T00:16:46.247Z,88.80
2017-10-12T00:19:17.004Z,89.40
2017-10-12T00:21:47.736Z,89.50
2017-10-12T00:24:18.725Z,89.40
2017-10-12T00:26:50.648Z,89.50
2017-10-12T00:29:22.510Z,89.50
2017-10-12T00:31:53.846Z,89.70
2017-10-12T00:34:24.946Z,89.70
2017-10-12T00:36:55.525Z,90.10
2017-10-12T00:39:27.085Z,89.70
2017-10-12T00:41:59.069Z,89.70
2017-10-12T00:44:31.087Z,89.90
2017-10-12T00:47:03.036Z,89.90
2017-10-12T00:49:33.833Z,89.90
2017-10-12T00:52:04.993Z,89.80
2017-10-12T00:54:35.578Z,89.80
2017-10-12T00:57:07.161Z,89.80
2017-10-12T00:59:38.134Z,89.80
2017-10-12T01:02:09.015Z,89.80
2017-10-12T01:04:40.316Z,89.80
2017-10-12T01:07:12.133Z,89.90
2017-10-12T01:09:43.948Z,89.90
2017-10-12T01:12:15.034Z,90.00
2017-10-12T01:14:46.976Z,90.00
2017-10-12T01:17:18.357Z,90.20
2017-10-12T01:19:49.545Z,90.70
2017-10-12T01:22:22.036Z,91.80
2017-10-12T01:24:53.954Z,92.60
2017-10-12T01:27:24.984Z,92.60
2017-10-12T01:29:57.581Z,93.80
2017-10-12T01:32:28.785Z,94.00
2017-10-12T01:34:59.791Z,94.70
2017-10-12T01:37:31.936Z,95.40
2017-10-12T01:40:02.674Z,95.40
2017-10-12T01:42:33.687Z,95.80
2017-10-12T01:45:04.911Z,95.70
2017-10-12T01:47:35.989Z,95.80
2017-10-12T01:50:07.109Z,95.80
2017-10-12T01:52:39.387Z,95.70
2017-10-12T01:55:10.752Z,95.70
2017-10-12T01:57:41.545Z,95.60
2017-10-12T02:00:12.597Z,95.70
2017-10-12T02:02:44.025Z,95.70
2017-10-12T02:05:15.263Z,95.60
2017-10-12T02:07:47.841Z,95.40
2017-10-12T02:10:19.013Z,95.60
2017-10-12T02:12:50.826Z,95.60
2017-10-12T02:15:21.890Z,95.80
2017-10-12T02:17:53.040Z,96.10
2017-10-12T02:20:23.602Z,95.60
2017-10-12T02:22:54.620Z,95.90
2017-10-12T02:25:25.089Z,96.00
2017-10-12T02:27:56.072Z,95.90
2017-10-12T02:30:27.869Z,96.10
2017-10-12T02:32:59.695Z,95.90
2017-10-12T02:35:30.886Z,96.10
2017-10-12T02:38:01.758Z,96.20
2017-10-12T02:40:33.632Z,96.10
2017-10-12T02:43:04.643Z,96.20
2017-10-12T02:45:36.776Z,96.20
2017-10-12T02:48:07.761Z,96.20
2017-10-12T02:50:40.034Z,96.00
2017-10-12T02:53:10.762Z,96.10
2017-10-12T02:55:42.728Z,96.30
2017-10-12T02:58:14.562Z,95.80
2017-10-12T03:00:45.104Z,95.80
2017-10-12T03:03:16.144Z,95.80
2017-10-12T03:05:46.903Z,95.50
2017-10-12T03:08:18.689Z,95.40
2017-10-12T03:10:49.659Z,95.40
2017-10-12T03:13:20.851Z,95.40
2017-10-12T03:15:52.012Z,95.50
2017-10-12T03:18:22.941Z,95.60
2017-10-12T03:20:54.271Z,95.70
2017-10-12T03:23:24.865Z,95.70
2017-10-12T03:25:55.769Z,95.70
2017-10-12T03:28:26.829Z,95.70
2017-10-12T03:30:58.007Z,95.70
2017-10-12T03:33:30.175Z,95.60
2017-10-12T03:36:02.045Z,95.60
2017-10-12T03:38:33.656Z,95.60
2017-10-12T03:41:04.607Z,95.60
2017-10-12T03:43:35.896Z,95.50
2017-10-12T03:46:07.281Z,95.60
2017-10-12T03:48:38.386Z,95.40
2017-10-12T03:51:09.304Z,95.50
2017-10-12T03:53:41.658Z,95.60
2017-10-12T03:56:12.253Z,95.50
2017-10-12T03:58:43.733Z,95.60
2017-10-12T04:01:15.093Z,95.60
2017-10-12T04:03:45.739Z,95.60
2017-10-12T04:06:17.700Z,95.70
2017-10-12T04:08:50.939Z,95.80
2017-10-12T04:11:22.077Z,95.80
2017-10-12T04:13:53.216Z,95.90
2017-10-12T04:16:25.204Z,95.90
2017-10-12T04:18:56.120Z,95.80
2017-10-12T04:21:27.022Z,95.80
2017-10-12T04:23:58.394Z,95.80
2017-10-12T04:26:29.501Z,95.70
2017-10-12T04:29:00.775Z,95.70
2017-10-12T04:31:31.396Z,95.90
2017-10-12T04:34:02.243Z,95.60
2017-10-12T04:36:33.373Z,95.60
2017-10-12T04:39:04.706Z,95.50
2017-10-12T04:41:36.502Z,95.20
2017-10-12T04:44:07.477Z,95.20
2017-10-12T04:46:39.961Z,94.80
2017-10-12T04:49:11.129Z,94.80
2017-10-12T04:51:43.053Z,93.60
2017-10-12T04:54:14.428Z,93.60
2017-10-12T04:56:46.594Z,92.10
2017-10-12T04:59:18.440Z,92.00
2017-10-12T05:01:49.599Z,92.00
2017-10-12T05:04:20.919Z,92.20
2017-10-12T05:06:52.296Z,91.70
2017-10-12T05:09:24.020Z,90.90
2017-10-12T05:11:55.307Z,90.90
2017-10-12T05:14:27.456Z,90.70
2017-10-12T05:16:58.996Z,90.60
2017-10-12T05:19:30.421Z,90.50
2017-10-12T05:22:02.766Z,90.60
2017-10-12T05:24:34.807Z,90.70
2017-10-12T05:27:05.753Z,91.00
2017-10-12T05:29:37.182Z,91.60
2017-10-12T05:32:08.760Z,91.60
2017-10-12T05:34:39.688Z,91.90
2017-10-12T05:37:11.663Z,92.30
2017-10-12T05:39:42.324Z,92.20
2017-10-12T05:42:12.818Z,92.30
2017-10-12T05:44:44.855Z,92.30
2017-10-12T05:47:16.496Z,92.30
2017-10-12T05:49:47.285Z,92.30
2017-10-12T05:52:18.428Z,92.30
2017-10-12T05:54:49.602Z,92.30
2017-10-12T05:57:20.655Z,92.20
2017-10-12T05:59:51.732Z,92.30
2017-10-12T06:02:23.489Z,92.30
2017-10-12T06:04:54.875Z,92.50
2017-10-12T06:07:25.870Z,92.40
2017-10-12T06:09:56.701Z,92.30
2017-10-12T06:12:27.842Z,92.40
2017-10-12T06:14:59.297Z,92.40
2017-10-12T06:17:30.486Z,92.50
2017-10-12T06:20:01.723Z,92.60
2017-10-12T06:22:32.869Z,92.60
2017-10-12T06:25:04.571Z,92.30
2017-10-12T06:27:36.190Z,92.40
2017-10-12T06:30:07.222Z,92.50
2017-10-12T06:32:38.468Z,92.20
2017-10-12T06:35:09.398Z,92.20
2017-10-12T06:37:41.039Z,92.40
2017-10-12T06:40:13.231Z,92.20
2017-10-12T06:42:44.051Z,92.00
2017-10-12T06:45:16.355Z,92.00
2017-10-12T06:47:48.079Z,92.00
2017-10-12T06:50:19.828Z,92.00
2017-10-12T06:52:51.097Z,92.10
2017-10-12T06:55:22.151Z,91.90
2017-10-12T06:57:53.139Z,91.90
2017-10-12T07:00:24.985Z,91.80
2017-10-12T07:02:56.008Z,91.80
2017-10-12T07:05:27.219Z,91.80
2017-10-12T07:07:58.768Z,91.70
2017-10-12T07:10:30.293Z,91.70
2017-10-12T07:13:01.909Z,91.70
2017-10-12T07:15:33.252Z,91.60
2017-10-12T07:18:04.496Z,91.70
2017-10-12T07:20:35.374Z,91.50
2017-10-12T07:23:06.265Z,91.60
2017-10-12T07:25:37.167Z,91.50
2017-10-12T07:28:09.170Z,91.40
2017-10-12T07:30:40.569Z,91.40
2017-10-12T07:33:12.702Z,91.20
2017-10-12T07:35:44.372Z,91.10
2017-10-12T07:38:15.418Z,91.20
2017-10-12T07:40:47.600Z,90.80
2017-10-12T07:43:19.160Z,90.80
2017-10-12T07:45:50.121Z,90.70
2017-10-12T07:48:21.560Z,90.60
2017-10-12T07:50:52.780Z,90.50
2017-10-12T07:53:23.683Z,90.30
2017-10-12T07:55:55.548Z,90.20
2017-10-12T07:58:26.084Z,90.10
2017-10-12T08:00:57.816Z,90.10
2017-10-12T08:03:29.527Z,89.50
2017-10-12T08:06:01.867Z,89.30
2017-10-12T08:08:32.943Z,89.40
2017-10-12T08:11:04.168Z,89.20
2017-10-12T08:13:35.229Z,87.20
2017-10-12T08:16:07.312Z,81.30
2017-10-12T08:18:38.340Z,81.30
2017-10-12T08:21:10.075Z,81.70
2017-10-12T08:23:41.628Z,81.40
2017-10-12T08:26:12.856Z,81.00
2017-10-12T08:28:44.569Z,81.20
2017-10-12T08:31:17.246Z,85.20
2017-10-12T08:33:48.787Z,84.90
2017-10-12T08:36:20.059Z,82.80
2017-10-12T08:38:52.391Z,80.60
2017-10-12T08:41:25.216Z,78.30
2017-10-12T08:43:57.183Z,78.30
2017-10-12T08:46:28.639Z,76.80
2017-10-12T08:49:01.361Z,77.70
2017-10-12T08:51:34.184Z,79.10
2017-10-12T08:54:06.335Z,79.70
2017-10-12T08:56:37.622Z,78.80
2017-10-12T08:59:09.417Z,78.40
2017-10-12T09:01:41.361Z,76.60
2017-10-12T09:04:12.785Z,76.70
2017-10-12T09:06:43.792Z,75.30
2017-10-12T09:09:14.852Z,74.80
2017-10-12T09:11:46.045Z,74.90
2017-10-12T09:14:18.367Z,73.80
2017-10-12T09:16:49.647Z,73.20
2017-10-12T09:19:21.197Z,72.80
2017-10-12T09:21:52.643Z,71.50
2017-10-12T09:24:24.216Z,69.90
2017-10-12T09:26:56.193Z,68.20
2017-10-12T09:29:28.408Z,68.20
2017-10-12T09:31:59.514Z,68.20
2017-10-12T09:34:31.288Z,67.70
2017-10-12T09:37:01.793Z,67.50
2017-10-12T09:39:33.924Z,67.40
2017-10-12T09:42:06.026Z,66.00
2017-10-12T09:44:37.380Z,66.00
2017-10-12T09:47:08.720Z,63.30
2017-10-12T09:49:41.240Z,60.70
2017-10-12T09:52:13.143Z,60.70
2017-10-12T09:54:45.035Z,61.60
2017-10-12T09:57:16.394Z,61.70
2017-10-12T09:59:47.548Z,62.10
2017-10-12T10:02:18.516Z,61.60
2017-10-12T10:04:49.655Z,61.80
2017-10-12T10:07:20.543Z,63.30
2017-10-12T10:09:52.119Z,63.10
2017-10-12T10:12:24.166Z,62.90
2017-10-12T10:14:54.820Z,62.70
2017-10-12T10:17:26.326Z,63.50
2017-10-12T10:19:58.146Z,62.70
2017-10-12T10:22:29.420Z,62.70
2017-10-12T10:25:01.405Z,62.60
2017-10-12T10:27:32.636Z,62.60
2017-10-12T10:30:03.899Z,63.10
2017-10-12T10:32:34.896Z,63.80
2017-10-12T10:35:07.688Z,64.50
2017-10-12T10:37:38.924Z,64.50
2017-10-12T10:40:10.095Z,62.70
2017-10-12T10:42:41.908Z,61.90
2017-10-12T10:45:13.207Z,61.30
2017-10-12T10:47:45.789Z,61.10
2017-10-12T10:50:17.187Z,61.80
2017-10-12T10:52:48.328Z,61.90
2017-10-12T10:55:19.741Z,60.40
2017-10-12T10:57:50.932Z,59.80
2017-10-12T11:00:22.276Z,59.60
2017-10-12T11:02:53.606Z,58.50
2017-10-12T11:05:25.120Z,58.30
2017-10-12T11:07:56.665Z,58.10
2017-10-12T11:10:28.574Z,58.10
2017-10-12T11:12:59.833Z,58.10
2017-10-12T11:15:31.842Z,58.50
2017-10-12T11:18:03.252Z,58.50
2017-10-12T11:20:34.538Z,58.60
2017-10-12T11:23:06.446Z,60.00
2017-10-12T11:25:39.117Z,62.40
2017-10-12T11:28:10.880Z,62.30
2017-10-12T11:30:42.998Z,62.60
2017-10-12T11:33:14.473Z,63.30
2017-10-12T11:35:46.191Z,62.50
2017-10-12T11:38:18.516Z,60.60
2017-10-12T11:40:49.490Z,60.40
2017-10-12T11:43:22.174Z,58.80
2017-10-12T11:45:53.551Z,58.80
2017-10-12T11:48:25.609Z,57.20
2017-10-12T11:50:56.911Z,57.20
2017-10-12T11:53:27.797Z,57.70
2017-10-12T11:55:59.643Z,57.90
2017-10-12T11:58:31.721Z,58.50
2017-10-12T12:01:03.245Z,58.30
2017-10-12T12:03:34.565Z,57.90
2017-10-12T12:06:06.114Z,58.70
2017-10-12T12:08:37.499Z,58.10
2017-10-12T12:11:09.442Z,58.20
2017-10-12T12:13:40.241Z,58.70
2017-10-12T12:16:11.614Z,59.80
2017-10-12T12:18:42.496Z,60.90
2017-10-12T12:21:13.407Z,61.90
2017-10-12T12:23:44.142Z,62.90
2017-10-12T12:26:15.259Z,63.40
2017-10-12T12:28:46.267Z,63.50
2017-10-12T12:31:18.157Z,63.80
2017-10-12T12:33:49.514Z,62.90
2017-10-12T12:36:20.686Z,62.60
2017-10-12T12:38:51.435Z,61.70
2017-10-12T12:41:23.203Z,61.40
2017-10-12T12:43:54.266Z,61.20
2017-10-12T12:46:25.787Z,61.50
2017-10-12T12:48:57.292Z,60.90
2017-10-12T12:51:28.871Z,60.80
2017-10-12T12:54:00.403Z,60.80
2017-10-12T12:56:31.307Z,60.60
2017-10-12T12:59:02.309Z,59.70
2017-10-12T13:01:33.192Z,59.50
2017-10-12T13:04:04.590Z,60.40
2017-10-12T13:06:35.952Z,61.00
2017-10-12T13:09:07.871Z,61.90
2017-10-12T13:11:39.053Z,61.90
2017-10-12T13:14:10.223Z,61.60
2017-10-12T13:16:41.670Z,61.50
2017-10-12T13:19:12.891Z,61.30
2017-10-12T13:21:43.741Z,61.30
2017-10-12T13:24:14.611Z,60.90
2017-10-12T13:26:45.164Z,60.40
2017-10-12T13:29:16.468Z,59.80
2017-10-12T13:31:47.738Z,60.30
2017-10-12T13:34:18.992Z,59.90
2017-10-12T13:36:50.258Z,59.80
2017-10-12T13:39:21.650Z,59.80
2017-10-12T13:41:53.075Z,60.20
2017-10-12T13:44:25.556Z,60.30
2017-10-12T13:46:56.406Z,60.20
2017-10-12T13:49:27.987Z,61.00
2017-10-12T13:51:58.917Z,61.70
2017-10-12T13:54:30.658Z,62.30
2017-10-12T13:57:02.086Z,63.60
2017-10-12T13:59:33.556Z,63.10
2017-10-12T14:02:04.606Z,63.10
2017-10-12T14:04:35.865Z,62.80
2017-10-12T14:07:06.587Z,62.80
2017-10-12T14:09:38.723Z,62.70
2017-10-12T14:12:11.270Z,62.60
2017-10-12T14:14:42.762Z,62.80
2017-10-12T14:17:15.542Z,63.70
2017-10-12T14:19:46.952Z,63.70
2017-10-12T14:22:18.757Z,63.10
2017-10-12T14:24:49.749Z,62.40
2017-10-12T14:27:20.846Z,61.10
2017-10-12T14:29:52.518Z,60.60
2017-10-12T14:32:24.502Z,59.80
2017-10-12T14:34:55.728Z,59.80
2017-10-12T14:37:27.609Z,59.10
2017-10-12T14:39:59.305Z,59.00
2017-10-12T14:42:30.530Z,58.90
2017-10-12T14:45:02.264Z,58.90
2017-10-12T14:47:33.743Z,59.20
2017-10-12T14:50:05.206Z,59.70
2017-10-12T14:52:37.767Z,60.00
2017-10-12T14:55:09.335Z,60.00
2017-10-12T14:57:40.476Z,59.90
2017-10-12T15:00:12.850Z,60.60
2017-10-12T15:02:44.815Z,60.60
2017-10-12T15:05:17.133Z,61.30
2017-10-12T15:07:48.303Z,61.70
2017-10-12T15:10:20.079Z,61.50
2017-10-12T15:12:52.478Z,61.20
2017-10-12T15:15:25.853Z,61.20
2017-10-12T15:17:56.971Z,61.90
2017-10-12T15:20:29.576Z,61.80
2017-10-12T15:23:01.245Z,62.20
2017-10-12T15:25:32.617Z,62.80
2017-10-12T15:28:03.705Z,63.20
2017-10-12T15:30:35.272Z,63.60
2017-10-12T15:33:06.968Z,64.20
2017-10-12T15:35:38.851Z,64.20
2017-10-12T15:38:09.406Z,63.90
2017-10-12T15:40:41.181Z,64.30
2017-10-12T15:43:13.179Z,64.70
2017-10-12T15:45:45.324Z,64.70
2017-10-12T15:48:16.343Z,64.90
2017-10-12T15:50:47.891Z,65.60
2017-10-12T15:53:18.708Z,65.60
2017-10-12T15:55:50.921Z,66.10
2017-10-12T15:58:22.397Z,66.40
2017-10-12T16:00:54.415Z,66.90
2017-10-12T16:03:25.888Z,67.30
2017-10-12T16:05:56.901Z,67.30
2017-10-12T16:08:28.661Z,67.60
2017-10-12T16:11:00.175Z,67.50
2017-10-12T16:13:31.135Z,67.90
2017-10-12T16:16:02.956Z,68.80
2017-10-12T16:18:33.940Z,68.70
2017-10-12T16:21:05.426Z,69.10
2017-10-12T16:23:36.393Z,69.50
2017-10-12T16:26:08.187Z,70.90
2017-10-12T16:28:39.289Z,70.90
2017-10-12T16:31:10.604Z,70.80
2017-10-12T16:33:41.422Z,71.60
2017-10-12T16:36:12.880Z,72.00
2017-10-12T16:38:43.894Z,72.30
2017-10-12T16:41:16.000Z,72.60
2017-10-12T16:43:47.232Z,73.00
2017-10-12T16:46:17.895Z,73.60
2017-10-12T16:48:49.553Z,74.30
2017-10-12T16:51:20.436Z,74.30
2017-10-12T16:53:51.498Z,74.90
2017-10-12T16:56:22.688Z,75.00
2017-10-12T16:58:54.183Z,75.20
2017-10-12T17:01:25.821Z,76.50
2017-10-12T17:03:56.701Z,76.10
2017-10-12T17:06:27.621Z,76.30
2017-10-12T17:08:59.915Z,76.90
2017-10-12T17:11:30.956Z,76.80
2017-10-12T17:14:01.819Z,76.70
2017-10-12T17:16:32.652Z,76.90
2017-10-12T17:19:03.420Z,77.20
2017-10-12T17:21:35.020Z,78.50
2017-10-12T17:24:07.044Z,78.50
2017-10-12T17:26:38.909Z,79.10
2017-10-12T17:29:11.398Z,79.80
2017-10-12T17:31:42.201Z,79.80
2017-10-12T17:34:12.566Z,80.30
2017-10-12T17:36:43.614Z,80.20
2017-10-12T17:39:14.000Z,81.10
2017-10-12T17:41:44.739Z,80.80
2017-10-12T17:44:16.510Z,82.00
2017-10-12T17:46:47.966Z,82.00
2017-10-12T17:49:19.631Z,82.00
2017-10-12T17:51:51.000Z,82.10
2017-10-12T17:54:37.023Z,82.20
2017-10-12T17:56:53.965Z,83.10
2017-10-12T17:59:26.035Z,83.10
2017-10-12T18:01:57.332Z,83.00
2017-10-12T18:06:59.469Z,83.60
2017-10-12T18:09:30.450Z,84.30
2017-10-12T18:14:32.854Z,85.10
2017-10-12T18:17:03.898Z,85.80
2017-10-12T18:19:34.905Z,85.20
2017-10-12T18:22:06.317Z,85.40
2017-10-12T18:24:37.416Z,85.50
2017-10-12T18:27:08.827Z,85.90
2017-10-12T18:29:40.144Z,86.00
2017-10-12T18:32:11.834Z,86.30
2017-10-12T18:34:42.820Z,86.50
2017-10-12T18:42:15.108Z,86.90
2017-10-12T18:44:45.450Z,86.70
2017-10-12T18:47:16.909Z,87.20
2017-10-12T18:49:48.438Z,87.40
2017-10-12T18:52:18.975Z,88.00
2017-10-12T18:54:50.704Z,87.50
2017-10-12T18:57:21.579Z,87.50
2017-10-12T18:59:52.700Z,87.40
2017-10-12T19:02:25.286Z,88.20
2017-10-12T19:04:56.264Z,88.10
2017-10-12T19:07:28.077Z,88.30
2017-10-12T19:09:59.419Z,88.30
2017-10-12T19:12:30.079Z,88.30
2017-10-12T19:15:01.535Z,88.80
2017-10-12T19:17:33.573Z,88.80
2017-10-12T19:20:05.467Z,88.80
2017-10-12T19:22:36.455Z,89.10
2017-10-12T19:25:07.641Z,88.80
2017-10-12T19:27:38.394Z,88.80
2017-10-12T19:30:08.966Z,88.80
2017-10-12T19:32:40.313Z,89.00
2017-10-12T19:35:12.006Z,89.10
2017-10-12T19:37:42.719Z,89.10
2017-10-12T19:40:13.237Z,89.50
2017-10-12T19:42:44.303Z,89.50
2017-10-12T19:45:15.634Z,89.60
2017-10-12T19:47:46.213Z,89.50
2017-10-12T19:50:18.294Z,89.80
2017-10-12T19:52:49.676Z,89.80
2017-10-12T19:55:20.716Z,90.00
2017-10-12T19:57:51.006Z,90.10
2017-10-12T20:00:22.431Z,90.30
2017-10-12T20:02:53.862Z,90.30
2017-10-12T20:05:24.439Z,90.30
2017-10-12T20:07:55.334Z,90.40
2017-10-12T20:10:26.148Z,90.40
2017-10-12T20:12:57.120Z,90.40
2017-10-12T20:15:27.926Z,90.50
2017-10-12T20:17:58.562Z,90.60
2017-10-12T20:20:29.828Z,90.70
2017-10-12T20:23:00.639Z,90.80
2017-10-12T20:25:31.867Z,90.90
2017-10-12T20:28:02.250Z,90.90
2017-10-12T20:30:33.998Z,91.00
2017-10-12T20:33:05.616Z,91.10
2017-10-12T20:35:37.568Z,91.10
2017-10-12T20:38:08.719Z,91.10
2017-10-12T20:40:39.677Z,91.20
2017-10-12T20:43:10.974Z,91.40
2017-10-12T20:45:41.737Z,91.40
2017-10-12T20:48:13.209Z,91.50
2017-10-12T20:50:44.395Z,91.50
2017-10-12T20:53:15.126Z,91.60
2017-10-12T20:55:45.896Z,91.80
2017-10-12T20:58:17.426Z,91.80
2017-10-12T21:00:48.060Z,91.90
2017-10-12T21:03:18.756Z,91.90
2017-10-12T21:05:50.620Z,92.00
2017-10-12T21:08:22.130Z,92.00
2017-10-12T21:10:53.187Z,92.00
2017-10-12T21:13:24.555Z,92.00
2017-10-12T21:15:55.759Z,92.00
2017-10-12T21:18:27.057Z,92.10
2017-10-12T21:20:57.928Z,92.20
2017-10-12T21:23:29.406Z,92.40
2017-10-12T21:26:00.347Z,92.40
2017-10-12T21:28:30.718Z,92.40
2017-10-12T21:31:01.724Z,92.50
2017-10-12T21:33:33.252Z,92.40
2017-10-12T21:36:04.377Z,92.50
2017-10-12T21:38:35.100Z,92.50
2017-10-12T21:41:06.352Z,92.60
2017-10-12T21:43:36.972Z,92.60
2017-10-12T21:46:07.769Z,92.60
2017-10-12T21:48:39.360Z,92.70
2017-10-12T21:51:10.214Z,92.70
2017-10-12T21:53:41.019Z,92.80
2017-10-12T21:56:12.556Z,92.80
2017-10-12T21:58:44.573Z,92.80
2017-10-12T22:01:15.280Z,92.80
2017-10-12T22:03:47.095Z,92.60
2017-10-12T22:06:18.094Z,92.70
2017-10-12T22:08:48.871Z,92.60
2017-10-12T22:11:19.365Z,92.50
2017-10-12T22:13:50.251Z,92.40
2017-10-12T22:16:21.018Z,92.40
2017-10-12T22:18:51.977Z,92.50
2017-10-12T22:21:22.845Z,92.50
2017-10-12T22:23:54.421Z,92.50
2017-10-12T22:26:25.293Z,92.50
2017-10-12T22:28:56.347Z,92.30
2017-10-12T22:31:27.025Z,92.40
2017-10-12T22:33:58.718Z,92.50
2017-10-12T22:36:29.326Z,92.50
2017-10-12T22:39:00.298Z,92.50
2017-10-12T22:41:31.382Z,92.60
2017-10-12T22:44:02.989Z,92.70
2017-10-12T22:46:33.688Z,92.70
2017-10-12T22:49:05.111Z,92.70
2017-10-12T22:51:35.662Z,92.70
2017-10-12T22:54:07.207Z,92.60
2017-10-12T22:56:37.955Z,92.60
2017-10-12T22:59:09.756Z,92.60
2017-10-12T23:01:40.710Z,92.60
2017-10-12T23:04:11.617Z,92.60
2017-10-12T23:06:42.599Z,92.50
2017-10-12T23:09:13.560Z,92.30
2017-10-12T23:11:44.989Z,92.40
2017-10-12T23:14:15.977Z,92.50
2017-10-12T23:16:46.752Z,92.50
2017-10-12T23:19:17.522Z,92.70
2017-10-12T23:21:49.195Z,92.80
2017-10-12T23:24:19.962Z,92.80
2017-10-12T23:26:51.003Z,92.80
2017-10-12T23:29:21.876Z,92.70
2017-10-12T23:31:52.553Z,92.80
2017-10-12T23:34:24.207Z,92.70
2017-10-12T23:36:54.834Z,92.70
2017-10-12T23:39:25.617Z,92.60
2017-10-12T23:41:56.309Z,92.70
2017-10-12T23:44:27.604Z,92.70
2017-10-12T23:46:59.197Z,92.80
2017-10-12T23:49:29.818Z,92.80
2017-10-12T23:52:00.690Z,92.70
2017-10-12T23:54:31.387Z,92.60
2017-10-12T23:57:02.309Z,92.70
2017-10-12T23:59:34.496Z,92.60
